Airport ICAO


00:48 UTC

2°C

Scattered clouds


An affordable passengers' Moving Map for your aircraft. Made for the iPad and the iPhone
More information here

EGLC City


London UNITED KINGDOM   VFR


METAR EGLC 230020Z AUTO 06006KT 9999 SCT030 02/M01 Q1023 0h28min

TAF AMD EGLC 222033Z 2220/2222 06003KT 9999 FEW040 PROB30 TEMPO 2220/2222 8000 4h15min





NOTAMS

OPEN